Time;durP1;ratioP1;P1;durP2;ratioP2;P2;SDS_P1;SDS_P2;PMS_P1;PMS_P2;Temp;Humidity;BMP_temperature;BMP_pressure;BME280_temperature;BME280_humidity;BME280_pressure;Samples;Min_cycle;Max_cycle;Signal;HPM_P1;HPM_P2
2023/07/27 00:02:23;;;;;;;4.67;3.40;;;15.10;72.60;;;;;;5063154;28;20207;-74
2023/07/27 00:04:48;;;;;;;6.63;4.13;;;15.20;72.30;;;;;;5069032;28;20199;-74
2023/07/27 00:07:14;;;;;;;7.40;4.27;;;15.20;72.10;;;;;;5065413;28;20447;-75
2023/07/27 00:09:40;;;;;;;6.43;3.50;;;15.20;72.00;;;;;;5063989;28;21016;-74
2023/07/27 00:12:06;;;;;;;7.67;4.37;;;15.30;72.00;;;;;;5063805;28;20178;-73
2023/07/27 00:14:31;;;;;;;5.77;3.70;;;15.30;71.80;;;;;;5070809;28;20223;-76
2023/07/27 00:16:57;;;;;;;5.03;3.77;;;15.30;71.80;;;;;;5070878;28;20273;-75
2023/07/27 00:19:22;;;;;;;3.97;2.97;;;15.30;71.70;;;;;;5064195;28;20203;-75
2023/07/27 00:21:48;;;;;;;7.97;4.10;;;15.30;71.70;;;;;;5066990;28;20223;-75
2023/07/27 00:24:14;;;;;;;8.10;4.00;;;15.30;71.70;;;;;;5064620;28;20188;-75
2023/07/27 00:26:41;;;;;;;5.60;3.60;;;15.30;71.60;;;;;;5071453;28;20195;-74
2023/07/27 00:29:07;;;;;;;5.90;3.50;;;15.30;71.60;;;;;;5056385;28;20208;-73
2023/07/27 00:31:33;;;;;;;6.07;3.83;;;15.40;71.30;;;;;;5066456;28;20467;-73
2023/07/27 00:33:58;;;;;;;6.83;4.70;;;15.40;71.30;;;;;;5068867;28;20645;-74
2023/07/27 00:36:24;;;;;;;5.73;3.60;;;15.40;71.40;;;;;;5068406;28;20184;-73
2023/07/27 00:38:49;;;;;;;6.30;3.70;;;15.40;71.30;;;;;;5071008;28;20211;-74
2023/07/27 00:41:15;;;;;;;6.70;3.80;;;15.40;71.30;;;;;;5061741;28;20295;-75
2023/07/27 00:43:40;;;;;;;4.33;3.37;;;15.40;71.40;;;;;;5068527;28;20197;-74
2023/07/27 00:46:07;;;;;;;6.73;3.60;;;15.30;71.40;;;;;;5067429;28;20195;-74
2023/07/27 00:48:33;;;;;;;7.90;3.63;;;15.30;71.30;;;;;;5071546;28;20580;-75
2023/07/27 00:50:59;;;;;;;6.07;3.47;;;15.40;71.30;;;;;;5059228;28;20466;-76
2023/07/27 00:53:24;;;;;;;4.73;3.50;;;15.40;71.10;;;;;;5070774;28;20622;-74
2023/07/27 00:55:50;;;;;;;4.70;3.30;;;15.40;71.10;;;;;;5070286;28;20571;-75
2023/07/27 00:58:16;;;;;;;5.97;3.80;;;15.40;71.10;;;;;;5063010;28;20184;-75
2023/07/27 01:00:42;;;;;;;4.97;3.27;;;15.40;71.10;;;;;;5048696;28;20466;-74
2023/07/27 01:03:09;;;;;;;4.93;3.50;;;15.40;71.00;;;;;;5073728;28;20188;-74
2023/07/27 01:05:35;;;;;;;6.07;3.40;;;15.40;71.10;;;;;;5074518;28;20426;-76
2023/07/27 01:08:01;;;;;;;6.17;3.57;;;15.40;71.10;;;;;;5073857;28;20442;-74
2023/07/27 01:10:49;;;;;;;5.33;3.30;;;15.40;71.10;;;;;;5066491;28;20462;-76
2023/07/27 01:13:42;;;;;;;7.30;3.83;;;15.30;71.30;;;;;;5074878;28;20323;-73
2023/07/27 01:16:13;;;;;;;5.87;3.40;;;15.30;71.40;;;;;;5070302;28;20466;-75
2023/07/27 01:18:57;;;;;;;5.97;3.60;;;15.30;71.30;;;;;;5075608;28;20434;-76
2023/07/27 01:21:34;;;;;;;5.67;3.73;;;15.30;71.10;;;;;;5076764;28;20476;-75
2023/07/27 01:24:27;;;;;;;7.77;3.77;;;15.40;71.10;;;;;;5076825;28;20429;-76
2023/07/27 01:27:15;;;;;;;5.23;3.10;;;15.40;71.00;;;;;;5073161;28;20455;-73
2023/07/27 01:29:53;;;;;;;6.37;3.40;;;15.40;71.00;;;;;;5076511;28;20460;-75
2023/07/27 01:32:20;;;;;;;5.90;3.40;;;15.40;71.00;;;;;;5071851;28;20425;-74
2023/07/27 01:34:50;;;;;;;4.37;3.27;;;15.40;70.70;;;;;;5075311;28;20474;-74
2023/07/27 01:37:17;;;;;;;6.20;3.10;;;15.50;70.70;;;;;;5071414;28;20456;-74
2023/07/27 01:39:48;;;;;;;6.83;3.53;;;15.40;70.80;;;;;;5072607;28;20438;-76
2023/07/27 01:42:14;;;;;;;4.90;3.40;;;15.40;70.80;;;;;;5070262;28;20430;-75
2023/07/27 01:44:40;;;;;;;7.03;3.23;;;15.40;71.00;;;;;;5074559;28;20464;-74
2023/07/27 01:47:07;;;;;;;5.10;3.07;;;15.30;71.00;;;;;;5075935;28;20419;-77
2023/07/27 01:49:37;;;;;;;4.00;2.80;;;15.30;71.10;;;;;;5077727;28;20310;-74
2023/07/27 01:52:04;;;;;;;7.60;3.47;;;15.30;71.00;;;;;;5074874;28;20480;-76
2023/07/27 01:54:31;;;;;;;7.43;3.77;;;15.30;71.10;;;;;;5076520;28;20470;-77
2023/07/27 01:56:58;;;;;;;5.47;3.10;;;15.30;71.30;;;;;;5076608;28;20414;-75
2023/07/27 01:59:24;;;;;;;8.10;3.57;;;15.20;71.30;;;;;;5074793;28;20437;-74
2023/07/27 02:01:50;;;;;;;4.83;2.97;;;15.20;71.30;;;;;;5073568;28;20457;-73
2023/07/27 02:04:16;;;;;;;5.10;2.93;;;15.20;71.40;;;;;;5077179;28;20453;-74
2023/07/27 02:06:41;;;;;;;5.30;2.80;;;15.20;71.30;;;;;;5076651;28;20194;-73
2023/07/27 02:09:07;;;;;;;7.40;3.00;;;15.20;71.30;;;;;;5077099;28;20222;-74
2023/07/27 02:11:33;;;;;;;5.17;3.30;;;15.20;71.30;;;;;;5072526;28;20203;-74
2023/07/27 02:14:17;;;;;;;4.30;2.87;;;15.20;71.30;;;;;;5071429;28;20581;-75
2023/07/27 02:16:53;;;;;;;4.60;3.03;;;15.20;71.10;;;;;;5081017;28;20945;-74
2023/07/27 02:19:29;;;;;;;6.20;3.47;;;15.30;71.10;;;;;;5082122;28;20497;-75
2023/07/27 02:21:56;;;;;;;5.63;3.13;;;15.30;71.10;;;;;;5079169;28;20534;-75
2023/07/27 02:24:22;;;;;;;6.23;3.50;;;15.30;71.00;;;;;;5080412;28;20426;-74
2023/07/27 02:26:48;;;;;;;4.73;3.30;;;15.30;71.10;;;;;;5077455;28;20553;-74
2023/07/27 02:29:13;;;;;;;4.80;3.20;;;15.30;71.10;;;;;;5074478;28;20458;-75
2023/07/27 02:31:39;;;;;;;3.93;2.80;;;15.30;71.30;;;;;;5070114;28;20204;-77
2023/07/27 02:34:05;;;;;;;4.43;3.10;;;15.20;71.60;;;;;;5077354;28;20212;-73
2023/07/27 02:36:31;;;;;;;5.10;3.43;;;15.20;71.60;;;;;;5070638;28;20180;-74
2023/07/27 02:38:56;;;;;;;5.53;3.50;;;15.20;71.60;;;;;;5079045;28;20446;-74
2023/07/27 02:41:22;;;;;;;5.00;3.07;;;15.20;71.70;;;;;;5070779;28;20200;-74
2023/07/27 02:43:48;;;;;;;6.20;3.67;;;15.20;71.70;;;;;;5078030;28;20211;-74
2023/07/27 02:46:13;;;;;;;5.30;3.00;;;15.20;71.70;;;;;;5074235;28;20234;-73
2023/07/27 02:48:39;;;;;;;3.90;2.90;;;15.20;71.70;;;;;;5075759;28;20211;-73
2023/07/27 02:51:05;;;;;;;5.30;3.20;;;15.30;71.70;;;;;;5069515;28;20200;-76
2023/07/27 02:53:30;;;;;;;4.57;3.00;;;15.30;71.60;;;;;;5075261;28;20743;-71
2023/07/27 02:56:02;;;;;;;8.13;3.30;;;15.30;71.60;;;;;;5078267;28;20213;-74
2023/07/27 02:58:28;;;;;;;4.13;2.97;;;15.30;71.70;;;;;;5074014;28;20195;-75
2023/07/27 03:00:57;;;;;;;4.70;3.20;;;15.30;71.60;;;;;;5069503;28;20472;-74
2023/07/27 03:03:22;;;;;;;5.23;2.97;;;15.40;71.60;;;;;;5075712;28;20187;-75
2023/07/27 03:05:55;;;;;;;6.93;3.47;;;15.40;71.60;;;;;;5072313;28;20502;-76
2023/07/27 03:08:20;;;;;;;5.63;3.57;;;15.40;71.30;;;;;;5077377;28;20195;-77
2023/07/27 03:10:46;;;;;;;7.10;3.60;;;15.40;71.40;;;;;;5074081;28;20462;-75
2023/07/27 03:13:12;;;;;;;6.23;3.33;;;15.50;71.40;;;;;;5075410;28;20202;-73
2023/07/27 03:15:40;;;;;;;4.10;2.80;;;15.50;71.30;;;;;;5074746;28;20192;-74
2023/07/27 03:18:07;;;;;;;9.03;3.30;;;15.50;71.30;;;;;;5054056;28;20206;-75
2023/07/27 03:20:43;;;;;;;4.03;2.70;;;15.50;71.00;;;;;;5065859;28;20922;-74
2023/07/27 03:23:09;;;;;;;5.80;2.70;;;15.50;71.10;;;;;;5065630;28;20433;-73
2023/07/27 03:25:36;;;;;;;5.33;3.10;;;15.50;71.10;;;;;;5067992;28;20422;-75
2023/07/27 03:28:04;;;;;;;5.83;2.80;;;15.50;71.30;;;;;;5067928;28;20427;-74
2023/07/27 03:30:29;;;;;;;8.07;3.43;;;15.50;71.10;;;;;;5058730;28;20454;-76
2023/07/27 03:32:55;;;;;;;5.97;3.10;;;15.50;71.10;;;;;;5070954;28;20503;-73
2023/07/27 03:35:21;;;;;;;4.57;3.20;;;15.60;70.70;;;;;;5074844;28;20219;-73
2023/07/27 03:37:46;;;;;;;5.70;3.50;;;15.60;70.80;;;;;;5074247;28;20191;-74
2023/07/27 03:40:12;;;;;;;4.63;3.03;;;15.60;70.80;;;;;;5066471;28;20225;-74
2023/07/27 03:42:38;;;;;;;3.93;2.90;;;15.60;70.70;;;;;;5070423;28;20187;-73
2023/07/27 03:45:04;;;;;;;8.37;3.43;;;15.60;70.50;;;;;;5068966;28;20245;-75
2023/07/27 03:47:29;;;;;;;9.10;3.43;;;15.60;70.40;;;;;;5069484;28;20489;-76
2023/07/27 03:49:55;;;;;;;6.00;3.17;;;15.70;70.40;;;;;;5069809;28;20438;-76
2023/07/27 03:52:20;;;;;;;3.83;3.00;;;15.70;70.40;;;;;;5071488;28;20211;-74
2023/07/27 03:54:46;;;;;;;4.43;3.03;;;15.70;70.40;;;;;;5071928;28;20686;-73
2023/07/27 03:57:12;;;;;;;5.57;2.90;;;15.80;70.40;;;;;;5072854;28;20198;-74
2023/07/27 03:59:37;;;;;;;5.90;3.33;;;15.80;70.40;;;;;;5072672;28;20184;-75
2023/07/27 04:02:03;;;;;;;5.13;2.50;;;15.80;70.40;;;;;;5066912;28;20791;-74
2023/07/27 04:04:29;;;;;;;5.30;3.60;;;15.90;70.40;;;;;;5073627;28;20251;-74
2023/07/27 04:06:54;;;;;;;6.70;3.50;;;15.90;70.40;;;;;;5078544;28;20427;-74
2023/07/27 04:09:20;;;;;;;5.27;2.90;;;15.90;70.40;;;;;;5071740;28;20196;-75
2023/07/27 04:11:46;;;;;;;5.63;3.50;;;15.90;70.40;;;;;;5065287;28;20208;-75
2023/07/27 04:14:11;;;;;;;4.50;2.60;;;15.90;70.40;;;;;;5064683;28;20231;-75
2023/07/27 04:16:37;;;;;;;6.90;3.50;;;15.90;70.40;;;;;;5075249;28;20217;-75
2023/07/27 04:19:02;;;;;;;4.23;2.87;;;16.00;70.20;;;;;;5075504;28;20549;-74
2023/07/27 04:21:28;;;;;;;5.93;3.10;;;16.00;70.10;;;;;;5072620;28;20205;-78
2023/07/27 04:23:54;;;;;;;3.70;2.70;;;16.10;70.20;;;;;;5073330;28;20674;-75
2023/07/27 04:26:19;;;;;;;4.53;3.10;;;16.10;70.20;;;;;;5073317;28;20282;-75
2023/07/27 04:28:45;;;;;;;7.60;3.83;;;16.20;69.90;;;;;;5072371;28;20444;-75
2023/07/27 04:31:11;;;;;;;5.33;3.30;;;16.10;70.10;;;;;;5063725;28;20207;-75
2023/07/27 04:33:36;;;;;;;4.70;3.10;;;16.10;70.20;;;;;;5072076;28;20214;-74
2023/07/27 04:36:02;;;;;;;6.47;3.20;;;16.10;70.40;;;;;;5076276;28;20192;-75
2023/07/27 04:38:29;;;;;;;5.33;3.17;;;16.20;70.20;;;;;;5074073;28;20208;-77
2023/07/27 04:40:54;;;;;;;5.47;3.10;;;16.30;70.10;;;;;;5065297;28;20656;-75
2023/07/27 04:43:20;;;;;;;6.60;3.20;;;16.40;69.70;;;;;;5069368;28;20418;-74
2023/07/27 04:45:46;;;;;;;8.00;3.50;;;16.40;69.50;;;;;;5068818;28;20196;-74
2023/07/27 04:48:11;;;;;;;6.60;3.70;;;16.40;69.50;;;;;;5067973;28;20258;-75
2023/07/27 04:50:37;;;;;;;5.87;2.93;;;16.40;69.40;;;;;;5063263;28;20233;-75
2023/07/27 04:53:02;;;;;;;5.53;3.00;;;16.50;69.20;;;;;;5071025;28;20188;-75
2023/07/27 04:55:28;;;;;;;3.60;2.67;;;16.70;68.90;;;;;;5072737;28;20200;-75
2023/07/27 04:57:54;;;;;;;5.33;3.10;;;16.70;68.60;;;;;;5072856;28;20704;-76
2023/07/27 05:00:19;;;;;;;4.50;3.00;;;16.80;68.60;;;;;;5067607;28;20406;-74
2023/07/27 05:02:45;;;;;;;5.70;2.90;;;16.80;68.30;;;;;;5067500;28;20642;-75
2023/07/27 05:05:10;;;;;;;4.87;3.00;;;16.80;68.00;;;;;;5068540;28;20187;-74
2023/07/27 05:07:36;;;;;;;4.03;2.60;;;16.80;68.20;;;;;;5068626;28;20194;-74
2023/07/27 05:10:02;;;;;;;6.20;2.83;;;16.70;68.60;;;;;;5065832;28;20225;-76
2023/07/27 05:12:28;;;;;;;5.20;2.90;;;16.70;68.60;;;;;;5066465;28;20182;-73
2023/07/27 05:14:54;;;;;;;5.83;3.23;;;16.60;68.90;;;;;;5068218;28;20693;-75
2023/07/27 05:17:19;;;;;;;6.53;3.20;;;16.60;68.90;;;;;;5074338;28;20435;-74
2023/07/27 05:19:45;;;;;;;4.90;2.80;;;16.60;68.90;;;;;;5069860;28;20249;-74
2023/07/27 05:22:11;;;;;;;5.20;3.10;;;16.60;68.90;;;;;;5067181;28;20185;-73
2023/07/27 05:24:38;;;;;;;5.67;3.00;;;16.60;68.90;;;;;;5070712;28;20456;-75
2023/07/27 05:27:04;;;;;;;4.20;2.97;;;16.60;68.90;;;;;;5072307;28;20189;-73
2023/07/27 05:29:29;;;;;;;4.80;3.20;;;16.70;69.10;;;;;;5071765;28;20484;-72
2023/07/27 05:31:55;;;;;;;5.80;3.30;;;16.70;69.10;;;;;;5066160;28;20509;-74
2023/07/27 05:34:21;;;;;;;4.70;3.13;;;16.70;69.20;;;;;;5069174;28;21027;-74
2023/07/27 05:36:47;;;;;;;5.23;2.77;;;16.60;69.20;;;;;;5071861;28;20615;-75
2023/07/27 05:39:12;;;;;;;7.83;3.40;;;16.70;69.40;;;;;;5066993;28;20191;-74
2023/07/27 05:41:38;;;;;;;4.70;2.90;;;16.70;69.20;;;;;;5064104;28;20210;-75
2023/07/27 05:44:04;;;;;;;6.00;3.93;;;16.70;69.40;;;;;;5072783;28;20187;-76
2023/07/27 05:46:30;;;;;;;6.67;3.47;;;16.70;69.50;;;;;;5066898;28;20643;-73
2023/07/27 05:48:55;;;;;;;5.83;3.40;;;16.60;69.50;;;;;;5068785;28;20205;-74
2023/07/27 05:51:21;;;;;;;4.43;3.03;;;16.60;69.70;;;;;;5065517;28;20458;-75
2023/07/27 05:53:47;;;;;;;6.10;3.03;;;16.60;69.80;;;;;;5076848;28;20302;-74
2023/07/27 05:56:25;;;;;;;4.00;3.17;;;16.60;69.80;;;;;;5077790;28;20897;-74
2023/07/27 05:58:51;;;;;;;4.63;3.20;;;16.70;69.70;;;;;;5074774;28;20275;-75
2023/07/27 06:01:16;;;;;;;4.97;3.10;;;16.60;69.80;;;;;;5059799;28;20931;-75
2023/07/27 06:03:42;;;;;;;5.30;2.80;;;16.70;69.80;;;;;;5089876;28;20175;-77
2023/07/27 06:06:08;;;;;;;4.93;3.57;;;16.70;69.70;;;;;;5092978;28;20192;-75
2023/07/27 06:08:33;;;;;;;3.50;2.70;;;16.80;69.70;;;;;;5090754;28;20215;-76
2023/07/27 06:11:09;;;;;;;3.77;2.87;;;16.80;69.70;;;;;;5069334;28;20210;-78
2023/07/27 06:13:37;;;;;;;3.40;2.77;;;16.90;69.70;;;;;;5075187;28;20224;-76
2023/07/27 06:16:03;;;;;;;5.03;3.33;;;17.00;69.50;;;;;;5077038;28;20424;-77
2023/07/27 06:18:30;;;;;;;5.13;2.90;;;17.00;69.40;;;;;;5077899;28;20434;-77
2023/07/27 06:20:57;;;;;;;6.67;3.03;;;17.10;69.40;;;;;;5076676;28;20460;-76
2023/07/27 06:23:23;;;;;;;4.97;2.97;;;17.10;69.20;;;;;;5089051;28;20466;-77
2023/07/27 06:25:52;;;;;;;3.70;2.87;;;17.20;69.20;;;;;;5085591;28;20449;-77
2023/07/27 06:28:18;;;;;;;5.50;3.33;;;17.40;69.10;;;;;;5078850;28;20218;-75
2023/07/27 06:30:45;;;;;;;3.80;2.80;;;17.50;68.80;;;;;;5075708;28;20458;-76
2023/07/27 06:33:11;;;;;;;5.70;3.27;;;17.60;68.80;;;;;;5081108;28;20207;-76
2023/07/27 06:35:36;;;;;;;5.83;3.67;;;17.70;68.60;;;;;;5081801;28;20825;-78
2023/07/27 06:38:02;;;;;;;8.00;2.90;;;17.70;68.50;;;;;;5077985;28;20195;-76
2023/07/27 06:40:28;;;;;;;7.40;3.63;;;17.70;68.60;;;;;;5074050;28;20218;-76
2023/07/27 06:42:54;;;;;;;5.90;3.43;;;17.70;68.60;;;;;;5082280;28;20195;-76
2023/07/27 06:45:20;;;;;;;5.63;2.90;;;17.70;68.50;;;;;;5079225;28;20199;-76
2023/07/27 06:47:46;;;;;;;5.13;3.07;;;17.70;68.60;;;;;;5078705;28;20249;-76
2023/07/27 06:50:12;;;;;;;7.33;3.30;;;17.80;68.80;;;;;;5073339;28;20473;-75
2023/07/27 06:52:37;;;;;;;6.37;2.93;;;17.80;68.30;;;;;;5078163;28;20426;-77
2023/07/27 06:55:04;;;;;;;6.50;2.83;;;17.80;68.80;;;;;;5079959;28;20385;-77
2023/07/27 06:57:29;;;;;;;5.03;3.23;;;17.90;68.60;;;;;;5088966;22;20237;-75
2023/07/27 06:59:55;;;;;;;6.73;3.03;;;17.90;68.30;;;;;;5067865;28;20445;-76
2023/07/27 07:02:21;;;;;;;4.50;2.43;;;18.00;68.30;;;;;;5063887;28;20184;-75
2023/07/27 07:04:47;;;;;;;5.13;2.70;;;18.00;68.20;;;;;;5069198;28;20184;-76
2023/07/27 07:07:13;;;;;;;7.03;3.50;;;18.10;68.20;;;;;;5071307;28;20569;-75
2023/07/27 07:09:39;;;;;;;5.80;2.80;;;18.10;68.20;;;;;;5074892;28;20578;-75
2023/07/27 07:12:06;;;;;;;5.50;2.70;;;18.10;68.30;;;;;;5071423;28;20450;-73
2023/07/27 07:14:31;;;;;;;5.03;3.00;;;18.20;68.00;;;;;;5069305;28;20299;-75
2023/07/27 07:16:58;;;;;;;5.60;3.70;;;18.20;67.90;;;;;;5070879;28;20543;-73
2023/07/27 07:19:24;;;;;;;8.43;3.27;;;18.20;67.70;;;;;;5071102;28;20449;-75
2023/07/27 07:21:49;;;;;;;5.27;3.10;;;18.30;67.70;;;;;;5063948;28;20486;-73
2023/07/27 07:24:15;;;;;;;5.20;3.00;;;18.30;67.50;;;;;;5070455;28;20606;-72
2023/07/27 07:26:40;;;;;;;8.87;2.80;;;18.40;67.50;;;;;;5070637;28;20198;-74
2023/07/27 07:29:07;;;;;;;5.23;2.83;;;18.40;67.60;;;;;;5067104;28;20191;-75
2023/07/27 07:31:33;;;;;;;4.73;3.07;;;18.40;67.30;;;;;;5063628;28;20213;-74
2023/07/27 07:33:58;;;;;;;5.40;3.10;;;18.40;67.50;;;;;;5069753;28;20470;-74
2023/07/27 07:36:25;;;;;;;3.83;2.90;;;18.50;67.50;;;;;;5068310;28;20655;-74
2023/07/27 07:38:51;;;;;;;7.30;3.30;;;18.50;67.50;;;;;;5073335;28;20195;-75
2023/07/27 07:41:17;;;;;;;5.57;3.30;;;18.50;67.50;;;;;;5064627;28;20466;-73
2023/07/27 07:43:42;;;;;;;4.83;2.83;;;18.50;67.50;;;;;;5071853;28;20458;-76
2023/07/27 07:46:11;;;;;;;5.60;3.40;;;18.50;67.50;;;;;;5067006;28;20211;-75
2023/07/27 07:48:38;;;;;;;6.20;3.60;;;18.50;67.50;;;;;;5065507;28;20339;-74
2023/07/27 07:51:08;;;;;;;3.43;2.70;;;18.50;67.20;;;;;;5066514;28;20476;-75
2023/07/27 07:53:34;;;;;;;9.20;2.80;;;18.50;66.90;;;;;;5069070;28;20466;-73
2023/07/27 07:56:00;;;;;;;4.30;2.63;;;18.50;66.90;;;;;;5071551;28;20450;-74
2023/07/27 07:58:25;;;;;;;3.97;2.33;;;18.40;67.20;;;;;;5070995;28;20673;-75
2023/07/27 08:00:51;;;;;;;4.63;3.23;;;18.50;67.30;;;;;;5066945;28;20223;-76
2023/07/27 08:03:17;;;;;;;4.83;2.90;;;18.50;67.20;;;;;;5073057;28;20267;-74
2023/07/27 08:05:43;;;;;;;5.50;3.00;;;18.50;67.30;;;;;;5073271;28;20191;-74
2023/07/27 08:08:09;;;;;;;7.03;3.43;;;18.50;66.90;;;;;;5076965;28;20422;-74
2023/07/27 08:10:34;;;;;;;5.50;2.93;;;18.40;67.20;;;;;;5076802;28;20685;-73
2023/07/27 08:13:00;;;;;;;13.73;3.30;;;18.50;67.30;;;;;;5073988;28;20184;-73
2023/07/27 08:15:26;;;;;;;5.83;3.27;;;18.60;67.00;;;;;;5070008;28;20219;-74
2023/07/27 08:17:51;;;;;;;5.23;2.77;;;18.60;67.20;;;;;;5070390;28;20586;-73
2023/07/27 08:20:17;;;;;;;4.00;2.47;;;18.70;66.90;;;;;;5062806;28;20248;-74
2023/07/27 08:22:43;;;;;;;6.67;3.00;;;18.60;66.70;;;;;;5065964;28;20598;-74
2023/07/27 08:25:09;;;;;;;4.40;3.10;;;18.70;66.90;;;;;;5067998;28;20614;-74
2023/07/27 08:27:34;;;;;;;4.87;2.80;;;18.70;66.70;;;;;;5070079;28;20837;-73
2023/07/27 08:30:02;;;;;;;5.43;3.67;;;18.70;66.60;;;;;;5073629;28;20218;-74
2023/07/27 08:32:27;;;;;;;6.83;3.17;;;18.80;66.10;;;;;;5083547;28;20180;-76
2023/07/27 08:34:53;;;;;;;5.73;2.80;;;18.80;66.30;;;;;;5068047;28;20479;-74
2023/07/27 08:37:19;;;;;;;4.60;3.10;;;18.80;66.00;;;;;;5069763;28;20764;-73
2023/07/27 08:39:44;;;;;;;4.30;2.57;;;18.90;66.10;;;;;;5062828;28;20317;-74
2023/07/27 08:42:15;;;;;;;4.70;3.17;;;18.90;65.80;;;;;;5061983;28;20263;-73
2023/07/27 08:44:43;;;;;;;9.40;3.10;;;18.80;66.00;;;;;;5070567;28;20185;-73
2023/07/27 08:47:10;;;;;;;5.67;3.00;;;18.90;66.00;;;;;;5068133;28;20476;-73
2023/07/27 08:49:37;;;;;;;5.87;2.70;;;19.00;66.00;;;;;;5068961;28;20549;-72
2023/07/27 08:52:03;;;;;;;5.10;3.03;;;19.00;66.00;;;;;;5063332;28;20502;-74
2023/07/27 08:54:30;;;;;;;7.17;2.97;;;19.20;65.80;;;;;;5069425;28;20559;-72
2023/07/27 08:56:56;;;;;;;6.63;3.30;;;19.30;65.80;;;;;;5067585;28;20454;-74
2023/07/27 08:59:24;;;;;;;6.20;3.00;;;19.10;65.80;;;;;;5070148;28;20422;-73
2023/07/27 09:01:53;;;;;;;3.80;2.60;;;19.10;65.80;;;;;;5064849;28;20537;-73
2023/07/27 09:04:18;;;;;;;3.67;2.60;;;19.20;65.80;;;;;;5070908;28;20427;-73
2023/07/27 09:06:46;;;;;;;4.07;2.93;;;19.20;65.80;;;;;;5069878;28;20893;-73
2023/07/27 09:09:20;;;;;;;5.00;3.20;;;19.20;65.80;;;;;;5070607;28;20194;-73
2023/07/27 09:11:46;;;;;;;3.60;2.50;;;19.20;65.40;;;;;;5061986;28;20967;-73
2023/07/27 09:14:13;;;;;;;4.57;3.20;;;19.20;65.30;;;;;;5070379;28;20572;-76
2023/07/27 09:16:38;;;;;;;6.53;3.10;;;19.20;65.40;;;;;;5071385;28;20427;-74
2023/07/27 09:19:06;;;;;;;7.43;3.00;;;19.20;65.60;;;;;;5071604;28;20440;-74
2023/07/27 09:21:49;;;;;;;5.63;3.00;;;19.30;65.60;;;;;;5070024;28;20234;-74
2023/07/27 09:24:16;;;;;;;6.03;2.83;;;19.30;65.40;;;;;;5067636;28;20457;-73
2023/07/27 09:26:46;;;;;;;7.50;3.50;;;19.40;65.40;;;;;;5075073;28;20440;-73
2023/07/27 09:29:14;;;;;;;5.27;3.03;;;19.30;65.60;;;;;;5079749;28;21170;-74
2023/07/27 09:31:51;;;;;;;8.40;2.90;;;19.30;65.80;;;;;;5055538;28;21051;-73
2023/07/27 09:34:18;;;;;;;6.33;3.07;;;19.20;66.60;;;;;;5066010;28;20459;-73
2023/07/27 09:36:47;;;;;;;4.87;3.23;;;19.10;67.20;;;;;;5055444;28;21292;-72
2023/07/27 09:39:15;;;;;;;6.40;3.20;;;18.90;67.30;;;;;;5074794;28;20423;-73
2023/07/27 09:41:43;;;;;;;5.37;3.20;;;18.70;68.30;;;;;;5061953;28;20467;-74
2023/07/27 09:44:16;;;;;;;6.53;3.57;;;18.70;68.20;;;;;;5067622;28;20925;-74
2023/07/27 09:46:42;;;;;;;3.53;3.10;;;18.60;68.50;;;;;;5077280;28;20422;-73
2023/07/27 09:49:08;;;;;;;5.80;3.20;;;18.60;68.80;;;;;;5076139;28;20525;-74
2023/07/27 09:51:34;;;;;;;7.50;3.17;;;18.60;68.90;;;;;;5064306;28;21080;-74
2023/07/27 09:54:01;;;;;;;7.63;3.60;;;18.60;68.90;;;;;;5067653;28;20881;-74
2023/07/27 09:56:31;;;;;;;4.23;3.07;;;18.70;69.10;;;;;;5067898;28;20453;-74
2023/07/27 09:58:58;;;;;;;6.50;3.30;;;18.80;69.10;;;;;;5073308;28;20438;-72
2023/07/27 10:01:27;;;;;;;4.40;3.40;;;18.80;68.90;;;;;;5064295;28;20451;-72
2023/07/27 10:03:58;;;;;;;4.30;3.30;;;18.80;68.50;;;;;;5067651;28;20440;-72
2023/07/27 10:06:25;;;;;;;9.57;3.43;;;18.80;68.50;;;;;;5068158;28;20470;-72
2023/07/27 10:08:52;;;;;;;5.93;3.40;;;18.90;68.30;;;;;;5052973;28;20545;-73
2023/07/27 10:11:26;;;;;;;4.40;3.00;;;18.90;68.20;;;;;;5065685;28;20505;-72
2023/07/27 10:13:52;;;;;;;3.73;3.03;;;19.00;67.70;;;;;;5072111;28;20524;-72
2023/07/27 10:16:19;;;;;;;3.80;2.93;;;19.00;67.60;;;;;;5074671;28;20427;-71
2023/07/27 10:18:46;;;;;;;5.50;2.90;;;19.00;67.70;;;;;;5073322;28;20279;-73
2023/07/27 10:21:22;;;;;;;4.70;2.73;;;19.10;67.60;;;;;;5065864;28;20463;-73
2023/07/27 10:23:55;;;;;;;3.20;2.60;;;19.10;67.70;;;;;;5069995;28;20434;-73
2023/07/27 10:26:21;;;;;;;7.20;3.33;;;19.20;67.50;;;;;;5064935;28;20460;-72
2023/07/27 10:28:48;;;;;;;6.20;3.17;;;19.30;67.50;;;;;;5066215;28;20441;-73
2023/07/27 10:31:14;;;;;;;4.60;3.40;;;19.30;67.20;;;;;;5067191;28;20489;-73
2023/07/27 10:34:00;;;;;;;5.20;2.60;;;19.40;67.20;;;;;;5070911;28;20474;-73
2023/07/27 10:36:56;;;;;;;5.23;3.00;;;19.50;66.30;;;;;;5062157;28;20262;-73
2023/07/27 10:39:35;;;;;;;4.90;3.07;;;19.60;66.10;;;;;;5053970;28;20430;-73
2023/07/27 10:42:06;;;;;;;4.07;2.97;;;19.80;66.00;;;;;;5070041;28;20469;-74
2023/07/27 10:44:50;;;;;;;6.93;2.60;;;19.90;65.70;;;;;;5072440;28;20414;-73
2023/07/27 10:47:19;;;;;;;5.60;3.13;;;20.00;65.60;;;;;;5072567;28;20850;-73
2023/07/27 10:49:47;;;;;;;5.10;3.07;;;20.10;65.30;;;;;;5071006;28;20505;-71
2023/07/27 10:52:23;;;;;;;6.03;3.23;;;20.20;65.00;;;;;;5068764;28;20479;-73
2023/07/27 10:54:49;;;;;;;4.00;2.67;;;20.20;65.30;;;;;;5074357;28;20512;-72
2023/07/27 10:57:17;;;;;;;6.87;2.63;;;20.20;65.30;;;;;;5071014;28;20437;-73
2023/07/27 10:59:51;;;;;;;7.90;3.07;;;20.30;65.10;;;;;;5079752;28;20434;-74
2023/07/27 11:02:24;;;;;;;4.67;2.97;;;20.40;65.10;;;;;;5066673;28;20433;-73
2023/07/27 11:04:54;;;;;;;6.50;2.70;;;20.50;64.70;;;;;;5069497;28;20505;-73
2023/07/27 11:07:33;;;;;;;4.80;2.90;;;20.60;64.50;;;;;;5071339;28;20430;-74
2023/07/27 11:10:03;;;;;;;6.43;3.13;;;20.60;64.80;;;;;;5069393;28;20446;-73
2023/07/27 11:12:29;;;;;;;7.43;3.57;;;20.70;64.80;;;;;;5065901;28;20450;-72
2023/07/27 11:14:55;;;;;;;8.33;3.17;;;20.70;64.70;;;;;;5071992;28;20995;-73
2023/07/27 11:17:22;;;;;;;8.37;2.90;;;20.80;64.70;;;;;;5065388;28;20522;-74
2023/07/27 11:19:48;;;;;;;7.90;3.33;;;20.90;64.70;;;;;;5068829;28;20475;-73
2023/07/27 11:22:15;;;;;;;8.97;2.97;;;21.10;64.40;;;;;;5072303;28;20475;-75
2023/07/27 11:24:41;;;;;;;5.30;2.77;;;21.10;64.10;;;;;;5072695;28;20430;-72
2023/07/27 11:27:10;;;;;;;3.80;3.00;;;21.00;64.50;;;;;;5067089;28;20427;-74
2023/07/27 11:29:39;;;;;;;6.07;3.10;;;21.00;64.50;;;;;;5070824;28;20283;-73
2023/07/27 11:32:05;;;;;;;6.60;2.67;;;21.00;64.80;;;;;;5064912;28;20443;-73
2023/07/27 11:34:30;;;;;;;3.93;2.77;;;21.10;64.40;;;;;;5071202;28;20485;-72
2023/07/27 11:36:58;;;;;;;6.13;2.97;;;21.10;64.50;;;;;;5070663;28;20191;-73
2023/07/27 11:39:25;;;;;;;3.93;2.80;;;21.20;64.50;;;;;;5064058;28;20191;-75
2023/07/27 11:41:51;;;;;;;7.07;2.73;;;21.30;64.50;;;;;;5063735;28;20458;-73
2023/07/27 11:44:19;;;;;;;5.93;3.50;;;21.40;64.10;;;;;;5071303;28;20439;-72
2023/07/27 11:46:49;;;;;;;4.63;2.73;;;21.40;64.20;;;;;;5074102;28;20418;-74
2023/07/27 11:49:15;;;;;;;3.50;2.63;;;21.40;64.50;;;;;;5066668;28;20439;-73
2023/07/27 11:51:43;;;;;;;3.90;2.60;;;21.40;64.40;;;;;;5068781;28;20462;-74
2023/07/27 11:54:09;;;;;;;7.53;2.90;;;21.50;64.40;;;;;;5072269;28;20570;-73
2023/07/27 11:56:36;;;;;;;3.70;2.90;;;21.40;64.40;;;;;;5068207;28;21220;-73
2023/07/27 11:59:06;;;;;;;3.53;2.53;;;21.30;64.70;;;;;;5070000;28;20713;-73
2023/07/27 12:01:35;;;;;;;4.30;2.50;;;21.30;64.80;;;;;;5067249;28;20995;-73
2023/07/27 12:04:04;;;;;;;5.90;2.70;;;21.40;65.10;;;;;;5070286;28;20442;-75
2023/07/27 12:06:30;;;;;;;4.77;2.57;;;21.30;65.60;;;;;;5070095;28;20427;-74
2023/07/27 12:08:56;;;;;;;4.03;2.63;;;21.20;65.80;;;;;;5070217;28;20822;-74
2023/07/27 12:11:26;;;;;;;5.83;2.97;;;21.20;66.90;;;;;;5065970;28;20517;-74
2023/07/27 12:13:52;;;;;;;7.10;2.90;;;21.10;67.50;;;;;;5070139;28;20232;-72
2023/07/27 12:16:18;;;;;;;11.17;3.30;;;21.00;67.90;;;;;;5070309;28;20438;-73
2023/07/27 12:18:45;;;;;;;4.50;3.00;;;20.90;67.90;;;;;;5070069;28;20186;-72
2023/07/27 12:21:11;;;;;;;4.33;3.03;;;20.90;68.80;;;;;;5063053;28;20207;-71
2023/07/27 12:23:37;;;;;;;7.50;3.27;;;20.80;69.10;;;;;;5071673;28;20422;-73
2023/07/27 12:26:03;;;;;;;4.90;3.30;;;20.60;69.70;;;;;;5065577;28;20450;-73
2023/07/27 12:28:31;;;;;;;5.00;3.03;;;20.50;70.20;;;;;;5065392;28;20430;-73
2023/07/27 12:30:56;;;;;;;3.63;2.67;;;20.40;70.20;;;;;;5065958;28;20551;-73
2023/07/27 12:33:28;;;;;;;4.40;2.50;;;20.30;70.80;;;;;;5076368;28;20439;-74
2023/07/27 12:35:53;;;;;;;4.33;3.07;;;20.30;70.80;;;;;;5067571;28;20426;-74
2023/07/27 12:38:19;;;;;;;6.17;3.17;;;20.30;71.00;;;;;;5072065;28;20442;-74
2023/07/27 12:40:46;;;;;;;4.97;3.53;;;20.30;71.30;;;;;;5066489;28;20226;-73
2023/07/27 12:43:12;;;;;;;8.47;2.90;;;20.40;71.80;;;;;;5054696;28;20191;-74
2023/07/27 12:45:39;;;;;;;5.67;3.53;;;20.50;71.60;;;;;;5073542;28;20536;-73
2023/07/27 12:48:05;;;;;;;10.00;3.50;;;20.50;72.00;;;;;;5070913;28;20445;-74